createdAt,value
2022-08-05T00:01:36.008Z,7.10
2022-08-05T00:06:43.454Z,6.80
2022-08-05T00:09:12.690Z,7.03
2022-08-05T00:11:48.207Z,6.95
2022-08-05T00:14:17.027Z,7.07
2022-08-05T00:16:52.560Z,6.55
2022-08-05T00:19:25.009Z,6.97
2022-08-05T00:22:00.198Z,6.90
2022-08-05T00:24:30.960Z,6.38
2022-08-05T00:26:59.542Z,6.45
2022-08-05T00:29:27.466Z,6.28
2022-08-05T00:32:12.883Z,6.03
2022-08-05T00:35:06.037Z,6.07
2022-08-05T00:37:50.603Z,6.43
2022-08-05T00:40:27.316Z,6.00
2022-08-05T00:43:03.115Z,6.03
2022-08-05T00:45:38.643Z,6.28
2022-08-05T00:48:15.697Z,6.22
2022-08-05T00:50:46.007Z,6.50
2022-08-05T00:53:45.141Z,6.25
2022-08-05T00:56:07.883Z,7.25
2022-08-05T00:58:35.135Z,6.47
2022-08-05T01:01:08.684Z,6.90
2022-08-05T01:03:36.310Z,7.18
2022-08-05T01:06:03.946Z,6.82
2022-08-05T01:08:43.426Z,7.05
2022-08-05T01:11:22.089Z,7.00
2022-08-05T01:14:08.611Z,7.28
2022-08-05T01:16:45.696Z,8.02
2022-08-05T01:19:56.531Z,7.88
2022-08-05T01:22:57.615Z,9.27
2022-08-05T01:26:02.173Z,8.10
2022-08-05T01:28:49.424Z,8.77
2022-08-05T01:31:42.545Z,8.07
2022-08-05T01:34:35.918Z,9.43
2022-08-05T01:37:04.554Z,8.52
2022-08-05T01:39:46.288Z,8.80
2022-08-05T01:42:17.316Z,8.85
2022-08-05T01:44:54.109Z,9.30
2022-08-05T01:47:22.327Z,9.82
2022-08-05T01:50:01.358Z,9.48
2022-08-05T01:52:32.318Z,9.52
2022-08-05T01:55:05.606Z,9.85
2022-08-05T01:58:29.195Z,9.50
2022-08-05T02:00:29.952Z,9.05
2022-08-05T02:03:06.993Z,8.88
2022-08-05T02:05:53.494Z,10.80
2022-08-05T02:08:30.654Z,10.63
2022-08-05T02:11:05.144Z,9.93
2022-08-05T02:16:53.247Z,8.98
2022-08-05T02:19:47.022Z,8.93
2022-08-05T02:22:26.413Z,9.85
2022-08-05T02:25:01.982Z,9.35
2022-08-05T02:27:58.281Z,9.00
2022-08-05T02:30:19.642Z,9.23
2022-08-05T02:32:50.563Z,8.73
2022-08-05T02:35:22.130Z,9.10
2022-08-05T02:37:58.968Z,9.18
2022-08-05T02:40:27.885Z,9.48
2022-08-05T02:42:56.464Z,9.18
2022-08-05T02:45:25.403Z,9.25
2022-08-05T02:48:06.918Z,9.88
2022-08-05T02:50:44.402Z,8.52
2022-08-05T02:53:18.745Z,9.13
2022-08-05T02:55:54.093Z,9.38
2022-08-05T02:58:27.612Z,8.75
2022-08-05T03:00:59.351Z,9.27
2022-08-05T03:03:33.665Z,10.15
2022-08-05T03:06:56.733Z,9.27
2022-08-05T03:08:52.134Z,8.45
2022-08-05T03:11:56.042Z,8.95
2022-08-05T03:14:13.886Z,9.20
2022-08-05T03:16:41.863Z,9.07
2022-08-05T03:19:16.884Z,8.88
2022-08-05T03:21:48.711Z,8.25
2022-08-05T03:24:29.497Z,8.98
2022-08-05T03:26:59.250Z,7.88
2022-08-05T03:29:45.087Z,8.10
2022-08-05T03:32:15.483Z,7.53
2022-08-05T03:34:50.531Z,8.00
2022-08-05T03:37:19.853Z,7.95
2022-08-05T03:39:59.475Z,7.75
2022-08-05T03:42:32.845Z,7.05
2022-08-05T03:45:22.658Z,7.20
2022-08-05T03:47:51.535Z,7.72
2022-08-05T03:50:18.640Z,7.18
2022-08-05T03:55:06.940Z,7.03
2022-08-05T03:56:09.681Z,7.53
2022-08-05T03:58:41.156Z,6.50
2022-08-05T04:01:11.440Z,6.22
2022-08-05T04:04:09.114Z,6.22
2022-08-05T04:06:29.908Z,6.10
2022-08-05T04:08:57.392Z,6.43
2022-08-05T04:11:25.279Z,6.78
2022-08-05T04:14:17.875Z,6.90
2022-08-05T04:16:45.674Z,6.50
2022-08-05T04:19:13.588Z,7.35
2022-08-05T04:22:05.881Z,6.32
2022-08-05T04:24:28.369Z,5.88
2022-08-05T04:26:58.134Z,6.35
2022-08-05T04:29:27.285Z,6.32
2022-08-05T04:31:54.207Z,6.45
2022-08-05T04:34:33.619Z,7.10
2022-08-05T04:37:03.177Z,6.20
2022-08-05T04:39:31.308Z,7.13
2022-08-05T04:41:59.256Z,6.50
2022-08-05T04:44:30.059Z,6.88
2022-08-05T04:47:08.805Z,6.32
2022-08-05T04:50:01.823Z,6.55
2022-08-05T04:52:27.957Z,6.47
2022-08-05T04:54:57.159Z,6.00
2022-08-05T04:57:29.175Z,6.10
2022-08-05T04:59:57.350Z,6.10
2022-08-05T05:02:36.136Z,6.10
2022-08-05T05:05:26.553Z,6.10
2022-08-05T05:08:00.864Z,6.30
2022-08-05T05:10:30.136Z,6.00
2022-08-05T05:12:58.031Z,6.00
2022-08-05T05:15:57.561Z,5.68
2022-08-05T05:18:31.170Z,5.93
2022-08-05T05:21:01.256Z,5.00
2022-08-05T05:24:01.758Z,5.75
2022-08-05T05:26:15.295Z,5.65
2022-08-05T05:28:42.814Z,5.30
2022-08-05T05:31:11.747Z,5.55
2022-08-05T05:33:57.038Z,5.65
2022-08-05T05:36:28.384Z,5.53
2022-08-05T05:38:57.237Z,4.82
2022-08-05T05:41:24.452Z,5.03
2022-08-05T05:43:57.293Z,5.10
2022-08-05T05:46:25.581Z,5.40
2022-08-05T05:48:52.612Z,5.38
2022-08-05T05:51:21.722Z,5.63
2022-08-05T05:53:57.843Z,5.75
2022-08-05T05:56:33.370Z,5.13
2022-08-05T05:59:07.718Z,5.20
2022-08-05T06:01:37.864Z,5.53
2022-08-05T06:04:11.770Z,5.43
2022-08-05T06:09:17.419Z,5.30
2022-08-05T06:11:59.692Z,4.88
2022-08-05T06:14:34.569Z,6.03
2022-08-05T06:17:22.301Z,4.88
2022-08-05T06:19:56.938Z,4.95
2022-08-05T06:22:28.753Z,5.13
2022-08-05T06:24:56.537Z,5.32
2022-08-05T06:28:09.020Z,5.25
2022-08-05T06:30:19.943Z,4.75
2022-08-05T06:32:48.413Z,5.25
2022-08-05T06:36:02.918Z,5.32
2022-08-05T06:38:08.343Z,4.68
2022-08-05T06:40:42.089Z,5.47
2022-08-05T06:43:59.115Z,5.20
2022-08-05T06:46:03.906Z,5.15
2022-08-05T06:48:54.499Z,4.78
2022-08-05T06:51:29.304Z,4.70
2022-08-05T06:53:58.962Z,5.20
2022-08-05T06:56:27.246Z,4.78
2022-08-05T06:58:54.891Z,4.70
2022-08-05T07:01:22.697Z,4.72
2022-08-05T07:03:50.133Z,5.10
2022-08-05T07:06:19.284Z,5.15
2022-08-05T07:08:51.963Z,4.93
2022-08-05T07:16:00.376Z,4.65
2022-08-05T07:18:10.204Z,3.90
2022-08-05T07:20:39.133Z,4.22
2022-08-05T07:23:06.570Z,4.82
2022-08-05T07:25:56.423Z,4.68
2022-08-05T07:28:20.391Z,4.32
2022-08-05T07:30:52.871Z,4.88
2022-08-05T07:37:11.680Z,4.47
2022-08-05T07:40:26.101Z,4.60
2022-08-05T07:46:06.807Z,3.72
2022-08-05T07:49:01.499Z,3.75
2022-08-05T07:51:40.429Z,3.70
2022-08-05T07:54:09.643Z,3.67
2022-08-05T07:57:00.611Z,3.70
2022-08-05T07:59:38.886Z,3.72
2022-08-05T08:02:16.168Z,4.05
2022-08-05T08:04:48.653Z,3.15
2022-08-05T08:07:16.285Z,3.25
2022-08-05T08:09:45.203Z,3.42
2022-08-05T08:12:33.376Z,3.53
2022-08-05T08:15:04.394Z,3.45
2022-08-05T08:17:33.066Z,3.08
2022-08-05T08:20:43.194Z,3.15
2022-08-05T08:22:55.590Z,3.33
2022-08-05T08:25:27.171Z,3.60
2022-08-05T08:28:18.069Z,3.35
2022-08-05T08:30:47.766Z,3.25
2022-08-05T08:33:16.873Z,3.53
2022-08-05T08:35:52.719Z,2.78
2022-08-05T08:38:32.190Z,2.95
2022-08-05T08:41:10.549Z,3.72
2022-08-05T08:45:17.974Z,3.53
2022-08-05T08:46:31.857Z,6.10
2022-08-05T08:50:04.045Z,3.90
2022-08-05T08:52:13.586Z,3.55
2022-08-05T08:54:42.177Z,2.78
2022-08-05T08:57:11.281Z,3.35
2022-08-05T08:59:41.936Z,3.03
2022-08-05T09:02:16.546Z,3.00
2022-08-05T09:04:57.922Z,3.17
2022-08-05T09:07:39.716Z,3.83
2022-08-05T09:10:20.959Z,2.88
2022-08-05T09:12:54.372Z,3.15
2022-08-05T09:15:23.491Z,3.00
2022-08-05T09:17:53.112Z,3.15
2022-08-05T09:20:20.877Z,2.90
2022-08-05T09:26:01.668Z,3.05
2022-08-05T09:28:31.906Z,3.15
2022-08-05T09:31:22.926Z,3.03
2022-08-05T09:34:01.327Z,3.05
2022-08-05T09:36:56.268Z,2.65
2022-08-05T09:39:41.317Z,2.83
2022-08-05T09:42:17.442Z,2.67
2022-08-05T09:44:52.847Z,2.60
2022-08-05T09:51:14.781Z,2.60
2022-08-05T09:53:54.703Z,2.60
2022-08-05T09:59:04.246Z,2.63
2022-08-05T10:01:36.440Z,3.10
2022-08-05T10:04:11.095Z,3.50
2022-08-05T10:06:40.711Z,2.85
2022-08-05T10:09:28.163Z,3.05
2022-08-05T10:12:30.138Z,3.03
2022-08-05T10:15:20.983Z,2.80
2022-08-05T10:18:06.230Z,3.25
2022-08-05T10:20:36.985Z,2.67
2022-08-05T10:23:05.113Z,2.58
2022-08-05T10:30:07.230Z,2.60
2022-08-05T10:32:53.401Z,2.50
2022-08-05T10:35:08.582Z,2.70
2022-08-05T10:37:40.020Z,2.58
2022-08-05T10:40:44.985Z,2.60
2022-08-05T10:43:24.300Z,2.67
2022-08-05T10:46:12.216Z,2.42
2022-08-05T10:48:56.569Z,2.28
2022-08-05T10:51:28.740Z,2.38
2022-08-05T10:54:01.820Z,2.47
2022-08-05T10:56:49.357Z,2.22
2022-08-05T11:00:03.195Z,2.22
2022-08-05T11:02:38.451Z,2.42
2022-08-05T11:05:09.397Z,2.58
2022-08-05T11:08:21.720Z,2.20
2022-08-05T11:11:01.128Z,2.20
2022-08-05T11:13:55.075Z,2.90
2022-08-05T11:16:33.872Z,2.35
2022-08-05T11:20:10.251Z,2.50
2022-08-05T11:22:38.626Z,2.67
2022-08-05T11:28:17.059Z,2.20
2022-08-05T11:30:58.414Z,2.53
2022-08-05T11:33:47.999Z,2.33
2022-08-05T11:36:42.954Z,2.35
2022-08-05T11:39:10.369Z,2.28
2022-08-05T11:42:01.519Z,2.83
2022-08-05T11:44:41.177Z,2.70
2022-08-05T11:47:49.933Z,2.72
2022-08-05T11:50:10.494Z,2.30
2022-08-05T11:52:43.885Z,2.47
2022-08-05T11:55:13.397Z,3.00
2022-08-05T11:58:10.720Z,2.30
2022-08-05T12:00:38.160Z,3.15
2022-08-05T12:03:23.771Z,2.20
2022-08-05T12:06:05.958Z,2.88
2022-08-05T12:08:54.231Z,2.70
2022-08-05T12:11:23.696Z,2.30
2022-08-05T12:14:04.159Z,3.10
2022-08-05T12:16:38.581Z,2.58
2022-08-05T12:19:08.218Z,2.67
2022-08-05T12:21:42.149Z,2.90
2022-08-05T12:24:17.187Z,2.80
2022-08-05T12:26:44.598Z,2.38
2022-08-05T12:29:17.746Z,2.60
2022-08-05T12:31:53.174Z,2.22
2022-08-05T12:34:25.737Z,2.33
2022-08-05T12:36:53.817Z,2.30
2022-08-05T12:39:21.753Z,2.30
2022-08-05T12:41:50.507Z,2.30
2022-08-05T12:44:33.209Z,2.80
2022-08-05T12:47:01.741Z,2.58
2022-08-05T12:50:03.090Z,2.38
2022-08-05T12:52:39.742Z,2.10
2022-08-05T12:55:22.590Z,2.40
2022-08-05T12:58:38.416Z,2.05
2022-08-05T13:02:01.594Z,2.30
2022-08-05T13:03:42.805Z,2.60
2022-08-05T13:06:15.922Z,2.28
2022-08-05T13:08:51.866Z,2.83
2022-08-05T13:11:25.519Z,2.50
2022-08-05T13:14:14.871Z,2.10
2022-08-05T13:16:49.818Z,2.50
2022-08-05T13:19:16.876Z,2.33
2022-08-05T13:21:48.253Z,2.88
2022-08-05T13:24:27.595Z,2.58
2022-08-05T13:27:11.129Z,2.83
2022-08-05T13:30:32.402Z,2.65
2022-08-05T13:32:35.153Z,2.65
2022-08-05T13:35:07.281Z,4.93
2022-08-05T13:37:34.814Z,2.50
2022-08-05T13:40:16.358Z,2.38
2022-08-05T13:42:47.277Z,2.40
2022-08-05T13:45:14.292Z,2.30
2022-08-05T13:48:08.887Z,3.33
2022-08-05T13:50:35.280Z,2.90
2022-08-05T13:53:02.164Z,2.40
2022-08-05T13:55:41.586Z,2.35
2022-08-05T13:58:15.480Z,2.97
2022-08-05T14:00:57.724Z,2.85
2022-08-05T14:03:24.854Z,2.65
2022-08-05T14:06:24.896Z,2.53
2022-08-05T14:08:38.741Z,2.47
2022-08-05T14:14:54.228Z,2.33
2022-08-05T14:17:23.681Z,1.92
2022-08-05T14:19:56.903Z,2.10
2022-08-05T14:22:30.284Z,2.05
2022-08-05T14:25:02.008Z,2.10
2022-08-05T14:27:33.153Z,2.00
2022-08-05T14:29:59.997Z,1.98
2022-08-05T14:32:28.455Z,2.00
2022-08-05T14:34:56.886Z,1.88
2022-08-05T14:37:45.607Z,1.85
2022-08-05T14:40:14.094Z,2.00
2022-08-05T14:42:43.478Z,1.97
2022-08-05T14:45:10.728Z,2.03
2022-08-05T14:48:03.644Z,1.90
2022-08-05T14:50:25.260Z,2.10
2022-08-05T14:52:57.693Z,2.40
2022-08-05T14:55:28.778Z,1.92
2022-08-05T14:58:10.995Z,2.13
2022-08-05T15:00:39.364Z,2.03
2022-08-05T15:03:25.074Z,1.95
2022-08-05T15:06:13.551Z,2.25
2022-08-05T15:08:59.517Z,2.50
2022-08-05T15:11:50.829Z,2.13
2022-08-05T15:14:33.523Z,2.40
2022-08-05T15:16:59.623Z,2.70
2022-08-05T15:19:26.559Z,2.40
2022-08-05T15:21:54.321Z,1.92
2022-08-05T15:24:27.723Z,2.35
2022-08-05T15:26:56.001Z,1.90
2022-08-05T15:29:30.056Z,2.15
2022-08-05T15:32:02.415Z,2.30
2022-08-05T15:34:32.932Z,2.38
2022-08-05T15:37:06.393Z,2.15
2022-08-05T15:41:02.073Z,2.20
2022-08-05T15:42:56.751Z,2.20
2022-08-05T15:45:15.485Z,2.20
2022-08-05T15:47:44.158Z,2.58
2022-08-05T15:50:15.377Z,2.60
2022-08-05T15:52:52.831Z,2.70
2022-08-05T15:55:24.618Z,2.03
2022-08-05T15:57:52.357Z,2.28
2022-08-05T16:00:30.548Z,2.33
2022-08-05T16:03:00.087Z,2.20
2022-08-05T16:05:28.218Z,2.30
2022-08-05T16:07:55.428Z,2.30
2022-08-05T16:10:25.294Z,2.45
2022-08-05T16:12:55.976Z,2.47
2022-08-05T16:15:23.647Z,2.35
2022-08-05T16:17:57.746Z,2.42
2022-08-05T16:20:25.461Z,2.40
2022-08-05T16:22:52.397Z,2.42
2022-08-05T16:25:19.325Z,2.45
2022-08-05T16:28:00.293Z,4.22
2022-08-05T16:30:32.354Z,4.95
2022-08-05T16:33:00.449Z,5.60
2022-08-05T16:35:32.356Z,5.13
2022-08-05T16:38:15.000Z,5.20
2022-08-05T16:40:47.718Z,5.88
2022-08-05T16:43:19.249Z,5.68
2022-08-05T16:46:04.703Z,5.97
2022-08-05T16:48:35.651Z,5.53
2022-08-05T16:51:08.752Z,5.80
2022-08-05T16:54:04.956Z,6.40
2022-08-05T16:56:29.964Z,5.85
2022-08-05T16:58:57.971Z,6.97
2022-08-05T17:01:25.009Z,6.53
2022-08-05T17:03:52.250Z,6.63
2022-08-05T17:06:20.272Z,6.68
2022-08-05T17:08:53.405Z,6.72
2022-08-05T17:11:25.468Z,6.35
2022-08-05T17:14:00.138Z,7.40
2022-08-05T17:16:36.423Z,6.78
2022-08-05T17:19:09.650Z,6.25
2022-08-05T17:21:39.800Z,6.90
2022-08-05T17:24:19.443Z,7.00
2022-08-05T17:26:57.275Z,7.05
2022-08-05T17:29:33.250Z,6.60
2022-08-05T17:32:01.062Z,6.57
2022-08-05T17:34:29.869Z,6.82
2022-08-05T17:36:59.911Z,6.70
2022-08-05T17:39:34.625Z,7.00
2022-08-05T17:42:28.553Z,6.57
2022-08-05T17:44:51.208Z,6.40
2022-08-05T17:47:22.177Z,6.50
2022-08-05T17:49:59.530Z,6.22
2022-08-05T17:52:32.550Z,5.82
2022-08-05T17:55:00.880Z,5.43
2022-08-05T17:57:30.099Z,5.82
2022-08-05T18:00:03.491Z,5.22
2022-08-05T18:02:32.080Z,4.82
2022-08-05T18:05:02.963Z,4.40
2022-08-05T18:07:41.175Z,4.32
2022-08-05T18:10:10.937Z,3.97
2022-08-05T18:12:38.851Z,3.55
2022-08-05T18:15:06.656Z,4.28
2022-08-05T18:18:00.523Z,4.28
2022-08-05T18:20:29.362Z,4.88
2022-08-05T18:23:00.719Z,5.07
2022-08-05T18:25:38.796Z,6.38
2022-08-05T18:28:06.361Z,5.95
2022-08-05T18:30:34.061Z,6.63
2022-08-05T18:33:01.637Z,7.47
2022-08-05T18:35:59.952Z,7.15
2022-08-05T18:38:19.452Z,7.57
2022-08-05T18:41:55.881Z,7.75
2022-08-05T18:43:42.987Z,9.38
2022-08-05T18:46:19.515Z,8.45
2022-08-05T18:48:51.943Z,8.55
2022-08-05T18:52:04.847Z,8.02
2022-08-05T18:54:31.454Z,8.00
2022-08-05T18:57:02.370Z,8.68
2022-08-05T18:59:42.908Z,9.18
2022-08-05T19:02:26.609Z,8.80
2022-08-05T19:05:03.251Z,8.30
2022-08-05T19:07:45.556Z,8.57
2022-08-05T19:10:14.953Z,9.63
2022-08-05T19:12:43.072Z,8.00
2022-08-05T19:15:25.219Z,8.30
2022-08-05T19:17:59.329Z,8.57
2022-08-05T19:20:41.509Z,8.60
2022-08-05T19:23:22.439Z,9.20
2022-08-05T19:26:02.680Z,10.60
2022-08-05T19:28:32.843Z,9.13
2022-08-05T19:31:00.874Z,10.57
2022-08-05T19:33:35.331Z,11.10
2022-08-05T19:36:07.255Z,9.68
2022-08-05T19:38:36.308Z,9.38
2022-08-05T19:41:06.692Z,8.90
2022-08-05T19:44:05.804Z,8.88
2022-08-05T19:46:29.221Z,7.50
2022-08-05T19:49:02.870Z,7.80
2022-08-05T19:52:06.181Z,7.90
2022-08-05T20:00:52.893Z,7.50
2022-08-05T20:03:19.833Z,7.50
2022-08-05T20:05:51.123Z,8.63
2022-08-05T20:08:20.431Z,7.93
2022-08-05T20:10:51.356Z,7.72
2022-08-05T20:13:54.426Z,7.80
2022-08-05T20:16:07.020Z,8.60
2022-08-05T20:18:36.196Z,9.65
2022-08-05T20:21:05.313Z,10.32
2022-08-05T20:23:40.305Z,11.70
2022-08-05T20:26:25.460Z,10.43
2022-08-05T20:28:56.237Z,12.55
2022-08-05T20:31:37.646Z,12.18
2022-08-05T20:34:10.702Z,13.30
2022-08-05T20:36:39.161Z,12.95
2022-08-05T20:39:13.086Z,13.35
2022-08-05T20:41:44.239Z,13.57
2022-08-05T20:44:19.085Z,13.40
2022-08-05T20:47:07.527Z,14.90
2022-08-05T20:49:39.597Z,12.75
2022-08-05T20:52:07.615Z,14.93
2022-08-05T20:54:43.398Z,14.45
2022-08-05T20:57:42.228Z,13.95
2022-08-05T21:00:35.004Z,15.73
2022-08-05T21:03:01.273Z,14.57
2022-08-05T21:05:48.067Z,14.20
2022-08-05T21:08:15.738Z,13.93
2022-08-05T21:10:48.712Z,15.18
2022-08-05T21:13:20.078Z,13.93
2022-08-05T21:15:55.014Z,14.27
2022-08-05T21:18:23.290Z,13.13
2022-08-05T21:20:50.411Z,14.82
2022-08-05T21:23:17.473Z,14.40
2022-08-05T21:25:44.917Z,15.18
2022-08-05T21:28:12.327Z,14.70
2022-08-05T21:34:33.135Z,15.05
2022-08-05T21:37:02.636Z,14.25
2022-08-05T21:39:29.818Z,15.77
2022-08-05T21:42:01.626Z,17.05
2022-08-05T21:44:30.302Z,16.30
2022-08-05T21:46:58.516Z,18.00
2022-08-05T21:50:00.007Z,18.25
2022-08-05T21:56:05.224Z,16.77
2022-08-05T21:58:42.016Z,17.50
2022-08-05T22:01:10.880Z,17.35
2022-08-05T22:03:51.606Z,16.75
2022-08-05T22:06:22.901Z,17.48
2022-08-05T22:09:00.552Z,17.45
2022-08-05T22:11:34.693Z,16.23
2022-08-05T22:14:34.387Z,16.23
2022-08-05T22:16:56.883Z,15.30
2022-08-05T22:20:00.767Z,15.75
2022-08-05T22:22:14.551Z,15.57
2022-08-05T22:25:00.488Z,15.57
2022-08-05T22:28:11.152Z,15.63
2022-08-05T22:30:36.040Z,16.00
2022-08-05T22:33:15.663Z,13.63
2022-08-05T22:35:49.192Z,14.85
2022-08-05T22:38:17.088Z,15.52
2022-08-05T22:40:49.495Z,14.95
2022-08-05T22:43:37.106Z,17.15
2022-08-05T22:46:11.896Z,14.90
2022-08-05T22:48:40.720Z,12.70
2022-08-05T22:51:08.079Z,12.30
2022-08-05T22:53:43.112Z,12.55
2022-08-05T22:56:17.440Z,12.50
2022-08-05T22:58:56.734Z,12.52
2022-08-05T23:01:23.812Z,11.88
2022-08-05T23:04:10.763Z,11.55
2022-08-05T23:06:37.735Z,10.75
2022-08-05T23:09:24.574Z,11.73
2022-08-05T23:11:51.644Z,11.27
2022-08-05T23:14:22.690Z,11.77
2022-08-05T23:17:18.689Z,10.20
2022-08-05T23:19:57.906Z,9.40
2022-08-05T23:22:27.421Z,11.50
2022-08-05T23:24:55.308Z,11.30
2022-08-05T23:27:22.744Z,10.73
2022-08-05T23:29:51.073Z,9.98
2022-08-05T23:32:22.917Z,10.38
2022-08-05T23:34:50.863Z,9.98
2022-08-05T23:37:18.320Z,10.23
2022-08-05T23:39:54.475Z,11.98
2022-08-05T23:42:23.399Z,11.18
2022-08-05T23:44:55.735Z,10.90
2022-08-05T23:47:25.117Z,11.90
2022-08-05T23:49:56.364Z,11.30
2022-08-05T23:52:26.699Z,10.18
2022-08-05T23:55:07.107Z,9.68
2022-08-05T23:57:36.747Z,8.52
